Columbus, OH

10:15 AM EDT on July 26, 2016 (GMT -0400)
WX8Q Worthington Estates East | | Change Station

Elev 922 ft 40.10 °N, 83.01 °W | Updated 52 seconds ago

Clear
Clear
82.6 °F
Feels Like 85 °F
N
0.7
Wind Variable Wind from East
Gusts 1.6 mph

Today
High -- | Low -- °F
--% Chance of Precip.
Yesterday
High -- | Low -- °F
Precip. -- in
Pressure 30.02 in
Visibility 10.0 miles
Clouds Clear
Heat Index 85 °F
Dew Point 67 °F
Humidity 59%
Rainfall 0.00 in
Snow Depth Not available.
6:25 AM 8:51 PM
Waning Gibbous, 54% visible
METAR KOSU 261353Z VRB04KT 10SM CLR 27/21 A3004 RMK AO2 SLP165 T02720206
Pressure 30.02 in
Visibility 10.0 miles
Clouds Clear
Heat Index 85 °F
Dew Point 67 °F
Humidity 59%
Rainfall 0.00 in
Snow Depth Not available.
6:25 AM 8:51 PM
Waning Gibbous, 54% visible
METAR KOSU 261353Z VRB04KT 10SM CLR 27/21 A3004 RMK AO2 SLP165 T02720206

10-Day Weather Forecast

Almanac

Astronomy

Jul. 26, 2016 Rise Set
Actual Time
Civil Twilight
Nautical Twilight
Astronomical Twilight
Moon
Length of Visible Light
Length of Day
Tomorrow will be .
, % of the Moon is Illuminated

Today's Extremes

State Highs State Lows

Community

WunderPhotos

Upload Photos

1,927,590 photos uploaded!

WunderBlog® & News

Nearby

Air Quality

  Air Quality AQ Index Pollutant
Not available.

Snow Depth

Station Depth Elevation

Earthquake Activity

City Distance Mag. Time & Date
Minimum magnitude displayed is 2.5.

Coastal Water Temperatures

Place Temperature

Stations

Nearby Weather Stations

Station Location Temp. Windchill Dew Point Humidity Wind Precip. Elev Updated Type
                   

Watches & Warnings

There are currently no watches in effect.